sensor_id;sensor_type;location;lat;lon;timestamp;P1;durP1;ratioP1;P2;durP2;ratioP2
3267;SDS011;1646;52.450;13.326;2022-07-15T00:03:10;3.47;;;1.20;;
3267;SDS011;1646;52.450;13.326;2022-07-15T00:08:08;2.30;;;1.17;;
3267;SDS011;1646;52.450;13.326;2022-07-15T00:13:06;3.53;;;1.30;;
3267;SDS011;1646;52.450;13.326;2022-07-15T00:18:06;2.57;;;1.00;;
3267;SDS011;1646;52.450;13.326;2022-07-15T00:23:06;1.27;;;0.97;;
3267;SDS011;1646;52.450;13.326;2022-07-15T00:28:05;3.03;;;1.10;;
3267;SDS011;1646;52.450;13.326;2022-07-15T00:33:04;3.83;;;1.20;;
3267;SDS011;1646;52.450;13.326;2022-07-15T00:38:03;2.50;;;1.20;;
3267;SDS011;1646;52.450;13.326;2022-07-15T00:43:11;2.70;;;1.20;;
3267;SDS011;1646;52.450;13.326;2022-07-15T00:48:12;2.80;;;1.30;;
3267;SDS011;1646;52.450;13.326;2022-07-15T00:53:16;2.40;;;0.97;;
3267;SDS011;1646;52.450;13.326;2022-07-15T00:58:17;7.60;;;1.50;;
3267;SDS011;1646;52.450;13.326;2022-07-15T01:03:18;3.03;;;1.50;;
3267;SDS011;1646;52.450;13.326;2022-07-15T01:08:17;2.80;;;1.33;;
3267;SDS011;1646;52.450;13.326;2022-07-15T01:13:17;6.73;;;1.50;;
3267;SDS011;1646;52.450;13.326;2022-07-15T01:18:16;3.37;;;1.30;;
3267;SDS011;1646;52.450;13.326;2022-07-15T01:23:16;2.13;;;1.13;;
3267;SDS011;1646;52.450;13.326;2022-07-15T01:28:23;4.00;;;1.20;;
3267;SDS011;1646;52.450;13.326;2022-07-15T01:33:22;3.27;;;1.20;;
3267;SDS011;1646;52.450;13.326;2022-07-15T01:38:23;4.83;;;1.77;;
3267;SDS011;1646;52.450;13.326;2022-07-15T01:43:27;2.30;;;1.43;;
3267;SDS011;1646;52.450;13.326;2022-07-15T01:48:26;4.73;;;1.53;;
3267;SDS011;1646;52.450;13.326;2022-07-15T01:54:02;2.83;;;1.33;;
3267;SDS011;1646;52.450;13.326;2022-07-15T01:59:00;5.10;;;1.43;;
3267;SDS011;1646;52.450;13.326;2022-07-15T02:03:59;6.20;;;1.47;;
3267;SDS011;1646;52.450;13.326;2022-07-15T02:08:58;9.10;;;1.87;;
3267;SDS011;1646;52.450;13.326;2022-07-15T02:14:00;4.10;;;1.70;;
3267;SDS011;1646;52.450;13.326;2022-07-15T02:19:02;4.20;;;1.57;;
3267;SDS011;1646;52.450;13.326;2022-07-15T02:24:00;3.53;;;1.60;;
3267;SDS011;1646;52.450;13.326;2022-07-15T02:28:58;3.67;;;1.40;;
3267;SDS011;1646;52.450;13.326;2022-07-15T02:33:58;10.23;;;1.53;;
3267;SDS011;1646;52.450;13.326;2022-07-15T02:38:57;5.13;;;1.60;;
3267;SDS011;1646;52.450;13.326;2022-07-15T02:44:03;2.80;;;1.30;;
3267;SDS011;1646;52.450;13.326;2022-07-15T02:49:03;5.03;;;1.80;;
3267;SDS011;1646;52.450;13.326;2022-07-15T02:54:03;12.33;;;2.93;;
3267;SDS011;1646;52.450;13.326;2022-07-15T02:59:03;5.60;;;2.57;;
3267;SDS011;1646;52.450;13.326;2022-07-15T03:04:03;9.40;;;2.10;;
3267;SDS011;1646;52.450;13.326;2022-07-15T03:09:02;2.70;;;1.73;;
3267;SDS011;1646;52.450;13.326;2022-07-15T03:14:03;8.43;;;2.50;;
3267;SDS011;1646;52.450;13.326;2022-07-15T03:19:02;4.77;;;1.60;;
3267;SDS011;1646;52.450;13.326;2022-07-15T03:24:00;4.20;;;1.60;;
3267;SDS011;1646;52.450;13.326;2022-07-15T03:29:00;3.93;;;1.80;;
3267;SDS011;1646;52.450;13.326;2022-07-15T03:33:59;7.23;;;1.70;;
3267;SDS011;1646;52.450;13.326;2022-07-15T03:38:57;8.73;;;2.20;;
3267;SDS011;1646;52.450;13.326;2022-07-15T03:43:56;7.10;;;1.90;;
3267;SDS011;1646;52.450;13.326;2022-07-15T03:48:55;7.50;;;2.00;;
3267;SDS011;1646;52.450;13.326;2022-07-15T03:53:55;5.60;;;1.73;;
3267;SDS011;1646;52.450;13.326;2022-07-15T03:58:53;4.50;;;1.77;;
3267;SDS011;1646;52.450;13.326;2022-07-15T04:03:52;8.07;;;2.00;;
3267;SDS011;1646;52.450;13.326;2022-07-15T04:08:51;5.30;;;2.00;;
3267;SDS011;1646;52.450;13.326;2022-07-15T04:13:50;8.93;;;1.80;;
3267;SDS011;1646;52.450;13.326;2022-07-15T04:18:49;6.47;;;1.80;;
3267;SDS011;1646;52.450;13.326;2022-07-15T04:23:50;9.40;;;3.37;;
3267;SDS011;1646;52.450;13.326;2022-07-15T04:28:48;4.80;;;1.63;;
3267;SDS011;1646;52.450;13.326;2022-07-15T04:33:52;8.00;;;1.77;;
3267;SDS011;1646;52.450;13.326;2022-07-15T04:38:51;11.53;;;1.90;;
3267;SDS011;1646;52.450;13.326;2022-07-15T04:43:52;7.80;;;2.17;;
3267;SDS011;1646;52.450;13.326;2022-07-15T04:48:50;7.53;;;1.50;;
3267;SDS011;1646;52.450;13.326;2022-07-15T04:54:05;4.07;;;1.87;;
3267;SDS011;1646;52.450;13.326;2022-07-15T04:59:07;3.17;;;1.30;;
3267;SDS011;1646;52.450;13.326;2022-07-15T05:04:05;8.00;;;1.70;;
3267;SDS011;1646;52.450;13.326;2022-07-15T05:09:04;5.10;;;2.07;;
3267;SDS011;1646;52.450;13.326;2022-07-15T05:14:03;5.30;;;1.90;;
3267;SDS011;1646;52.450;13.326;2022-07-15T05:19:03;5.70;;;1.77;;
3267;SDS011;1646;52.450;13.326;2022-07-15T05:24:01;8.40;;;1.60;;
3267;SDS011;1646;52.450;13.326;2022-07-15T05:29:21;4.23;;;1.67;;
3267;SDS011;1646;52.450;13.326;2022-07-15T05:34:23;5.60;;;1.80;;
3267;SDS011;1646;52.450;13.326;2022-07-15T05:39:22;5.60;;;1.93;;
3267;SDS011;1646;52.450;13.326;2022-07-15T05:44:24;8.00;;;1.50;;
3267;SDS011;1646;52.450;13.326;2022-07-15T05:49:24;19.70;;;2.10;;
3267;SDS011;1646;52.450;13.326;2022-07-15T05:54:24;3.83;;;1.30;;
3267;SDS011;1646;52.450;13.326;2022-07-15T05:59:23;5.77;;;1.23;;
3267;SDS011;1646;52.450;13.326;2022-07-15T06:04:21;5.80;;;1.17;;
3267;SDS011;1646;52.450;13.326;2022-07-15T06:09:24;6.80;;;1.33;;
3267;SDS011;1646;52.450;13.326;2022-07-15T06:14:23;9.90;;;1.37;;
3267;SDS011;1646;52.450;13.326;2022-07-15T06:19:22;5.93;;;1.30;;
3267;SDS011;1646;52.450;13.326;2022-07-15T06:24:21;4.97;;;1.40;;
3267;SDS011;1646;52.450;13.326;2022-07-15T06:29:20;5.07;;;1.40;;
3267;SDS011;1646;52.450;13.326;2022-07-15T06:34:18;7.17;;;1.47;;
3267;SDS011;1646;52.450;13.326;2022-07-15T06:39:17;5.10;;;1.30;;
3267;SDS011;1646;52.450;13.326;2022-07-15T06:44:16;7.13;;;1.40;;
3267;SDS011;1646;52.450;13.326;2022-07-15T06:49:24;5.03;;;1.00;;
3267;SDS011;1646;52.450;13.326;2022-07-15T06:54:22;9.20;;;1.50;;
3267;SDS011;1646;52.450;13.326;2022-07-15T06:59:21;9.00;;;1.30;;
3267;SDS011;1646;52.450;13.326;2022-07-15T07:04:19;7.87;;;1.50;;
3267;SDS011;1646;52.450;13.326;2022-07-15T07:09:20;7.33;;;1.53;;
3267;SDS011;1646;52.450;13.326;2022-07-15T07:14:20;9.33;;;1.60;;
3267;SDS011;1646;52.450;13.326;2022-07-15T07:19:18;3.60;;;1.17;;
3267;SDS011;1646;52.450;13.326;2022-07-15T07:24:16;4.23;;;1.50;;
3267;SDS011;1646;52.450;13.326;2022-07-15T07:29:16;8.23;;;1.50;;
3267;SDS011;1646;52.450;13.326;2022-07-15T07:34:19;6.90;;;1.70;;
3267;SDS011;1646;52.450;13.326;2022-07-15T07:39:17;5.80;;;1.80;;
3267;SDS011;1646;52.450;13.326;2022-07-15T07:44:16;1.73;;;1.33;;
3267;SDS011;1646;52.450;13.326;2022-07-15T07:49:14;6.87;;;1.60;;
3267;SDS011;1646;52.450;13.326;2022-07-15T07:54:30;3.80;;;0.80;;
3267;SDS011;1646;52.450;13.326;2022-07-15T07:59:30;3.47;;;1.03;;
3267;SDS011;1646;52.450;13.326;2022-07-15T08:04:28;10.17;;;1.40;;
3267;SDS011;1646;52.450;13.326;2022-07-15T08:09:26;4.90;;;1.60;;
3267;SDS011;1646;52.450;13.326;2022-07-15T08:14:24;5.70;;;1.50;;
3267;SDS011;1646;52.450;13.326;2022-07-15T08:19:25;5.90;;;1.20;;
3267;SDS011;1646;52.450;13.326;2022-07-15T08:24:24;5.73;;;1.67;;
3267;SDS011;1646;52.450;13.326;2022-07-15T08:29:22;8.10;;;1.00;;
3267;SDS011;1646;52.450;13.326;2022-07-15T08:34:20;2.83;;;0.80;;
3267;SDS011;1646;52.450;13.326;2022-07-15T08:39:20;2.27;;;0.93;;
3267;SDS011;1646;52.450;13.326;2022-07-15T08:44:19;11.00;;;1.20;;
3267;SDS011;1646;52.450;13.326;2022-07-15T08:49:18;5.97;;;1.20;;
3267;SDS011;1646;52.450;13.326;2022-07-15T08:54:16;4.50;;;1.30;;
3267;SDS011;1646;52.450;13.326;2022-07-15T08:59:16;4.93;;;0.90;;
3267;SDS011;1646;52.450;13.326;2022-07-15T09:04:15;3.90;;;0.90;;
3267;SDS011;1646;52.450;13.326;2022-07-15T09:09:24;3.53;;;0.90;;
3267;SDS011;1646;52.450;13.326;2022-07-15T09:14:29;3.13;;;0.90;;
3267;SDS011;1646;52.450;13.326;2022-07-15T09:19:27;2.17;;;0.90;;
3267;SDS011;1646;52.450;13.326;2022-07-15T09:24:26;3.50;;;1.10;;
3267;SDS011;1646;52.450;13.326;2022-07-15T09:29:26;5.27;;;1.53;;
3267;SDS011;1646;52.450;13.326;2022-07-15T09:34:59;7.33;;;1.37;;
3267;SDS011;1646;52.450;13.326;2022-07-15T09:39:58;4.40;;;1.27;;
3267;SDS011;1646;52.450;13.326;2022-07-15T09:44:58;6.93;;;1.00;;
3267;SDS011;1646;52.450;13.326;2022-07-15T09:50:17;3.10;;;1.20;;
3267;SDS011;1646;52.450;13.326;2022-07-15T09:55:30;2.93;;;0.90;;
3267;SDS011;1646;52.450;13.326;2022-07-15T10:00:30;7.43;;;1.30;;
3267;SDS011;1646;52.450;13.326;2022-07-15T10:05:28;5.40;;;0.83;;
3267;SDS011;1646;52.450;13.326;2022-07-15T10:10:27;12.17;;;1.10;;
3267;SDS011;1646;52.450;13.326;2022-07-15T10:15:30;5.67;;;1.00;;
3267;SDS011;1646;52.450;13.326;2022-07-15T10:20:45;1.83;;;1.00;;
3267;SDS011;1646;52.450;13.326;2022-07-15T10:26:04;2.40;;;1.17;;
3267;SDS011;1646;52.450;13.326;2022-07-15T10:31:24;5.03;;;1.10;;
3267;SDS011;1646;52.450;13.326;2022-07-15T10:36:24;2.40;;;0.90;;
3267;SDS011;1646;52.450;13.326;2022-07-15T10:41:22;3.53;;;1.00;;
3267;SDS011;1646;52.450;13.326;2022-07-15T10:46:26;6.30;;;1.37;;
3267;SDS011;1646;52.450;13.326;2022-07-15T10:51:41;8.90;;;1.07;;
3267;SDS011;1646;52.450;13.326;2022-07-15T10:56:44;1.47;;;0.90;;
3267;SDS011;1646;52.450;13.326;2022-07-15T11:01:47;2.10;;;1.00;;
3267;SDS011;1646;52.450;13.326;2022-07-15T11:18:00;2.00;;;0.90;;
3267;SDS011;1646;52.450;13.326;2022-07-15T11:23:04;3.43;;;0.70;;
3267;SDS011;1646;52.450;13.326;2022-07-15T11:28:06;2.03;;;1.10;;
3267;SDS011;1646;52.450;13.326;2022-07-15T11:33:08;2.67;;;1.00;;
3267;SDS011;1646;52.450;13.326;2022-07-15T11:38:07;1.93;;;1.03;;
3267;SDS011;1646;52.450;13.326;2022-07-15T11:43:11;4.90;;;1.40;;
3267;SDS011;1646;52.450;13.326;2022-07-15T11:48:33;1.37;;;1.03;;
3267;SDS011;1646;52.450;13.326;2022-07-15T11:53:36;8.00;;;1.10;;
3267;SDS011;1646;52.450;13.326;2022-07-15T11:58:36;1.43;;;0.90;;
3267;SDS011;1646;52.450;13.326;2022-07-15T12:03:38;4.97;;;1.00;;
3267;SDS011;1646;52.450;13.326;2022-07-15T12:08:40;7.27;;;1.30;;
3267;SDS011;1646;52.450;13.326;2022-07-15T12:13:40;2.40;;;0.83;;
3267;SDS011;1646;52.450;13.326;2022-07-15T12:18:44;5.00;;;1.40;;
3267;SDS011;1646;52.450;13.326;2022-07-15T12:23:56;4.03;;;0.93;;
3267;SDS011;1646;52.450;13.326;2022-07-15T12:29:00;5.47;;;0.90;;
3267;SDS011;1646;52.450;13.326;2022-07-15T12:34:00;3.10;;;1.00;;
3267;SDS011;1646;52.450;13.326;2022-07-15T12:39:07;1.53;;;0.93;;
3267;SDS011;1646;52.450;13.326;2022-07-15T12:44:15;2.80;;;1.07;;
3267;SDS011;1646;52.450;13.326;2022-07-15T12:54:37;3.97;;;1.00;;
3267;SDS011;1646;52.450;13.326;2022-07-15T12:59:48;2.60;;;0.70;;
3267;SDS011;1646;52.450;13.326;2022-07-15T13:04:48;1.17;;;0.80;;
3267;SDS011;1646;52.450;13.326;2022-07-15T13:09:46;3.00;;;1.00;;
3267;SDS011;1646;52.450;13.326;2022-07-15T13:14:44;2.80;;;0.80;;
3267;SDS011;1646;52.450;13.326;2022-07-15T13:19:42;2.30;;;0.80;;
3267;SDS011;1646;52.450;13.326;2022-07-15T13:24:42;3.07;;;0.90;;
3267;SDS011;1646;52.450;13.326;2022-07-15T13:29:40;5.10;;;0.97;;
3267;SDS011;1646;52.450;13.326;2022-07-15T13:34:38;3.63;;;0.80;;
3267;SDS011;1646;52.450;13.326;2022-07-15T13:39:36;2.50;;;1.10;;
3267;SDS011;1646;52.450;13.326;2022-07-15T13:44:36;3.30;;;1.10;;
3267;SDS011;1646;52.450;13.326;2022-07-15T13:49:34;4.20;;;1.00;;
3267;SDS011;1646;52.450;13.326;2022-07-15T13:54:50;1.53;;;1.00;;
3267;SDS011;1646;52.450;13.326;2022-07-15T13:59:49;4.03;;;1.67;;
3267;SDS011;1646;52.450;13.326;2022-07-15T14:04:47;2.20;;;1.43;;
3267;SDS011;1646;52.450;13.326;2022-07-15T14:09:45;3.47;;;1.10;;
3267;SDS011;1646;52.450;13.326;2022-07-15T14:14:43;3.33;;;1.27;;
3267;SDS011;1646;52.450;13.326;2022-07-15T14:19:43;2.60;;;1.00;;
3267;SDS011;1646;52.450;13.326;2022-07-15T14:24:41;3.03;;;0.90;;
3267;SDS011;1646;52.450;13.326;2022-07-15T14:29:40;2.80;;;0.93;;
3267;SDS011;1646;52.450;13.326;2022-07-15T14:34:38;2.80;;;0.90;;
3267;SDS011;1646;52.450;13.326;2022-07-15T14:39:37;3.00;;;1.00;;
3267;SDS011;1646;52.450;13.326;2022-07-15T14:44:35;3.90;;;0.90;;
3267;SDS011;1646;52.450;13.326;2022-07-15T14:49:33;5.53;;;1.33;;
3267;SDS011;1646;52.450;13.326;2022-07-15T14:54:32;4.50;;;1.53;;
3267;SDS011;1646;52.450;13.326;2022-07-15T14:59:32;3.00;;;1.20;;
3267;SDS011;1646;52.450;13.326;2022-07-15T15:04:35;4.97;;;2.07;;
3267;SDS011;1646;52.450;13.326;2022-07-15T15:09:34;2.17;;;1.20;;
3267;SDS011;1646;52.450;13.326;2022-07-15T15:14:33;7.20;;;1.20;;
3267;SDS011;1646;52.450;13.326;2022-07-15T15:19:31;7.90;;;1.67;;
3267;SDS011;1646;52.450;13.326;2022-07-15T15:24:30;1.93;;;1.40;;
3267;SDS011;1646;52.450;13.326;2022-07-15T15:29:28;2.23;;;1.30;;
3267;SDS011;1646;52.450;13.326;2022-07-15T15:34:27;4.10;;;1.10;;
3267;SDS011;1646;52.450;13.326;2022-07-15T15:39:26;2.50;;;1.00;;
3267;SDS011;1646;52.450;13.326;2022-07-15T15:44:24;2.70;;;1.20;;
3267;SDS011;1646;52.450;13.326;2022-07-15T15:49:22;2.07;;;1.30;;
3267;SDS011;1646;52.450;13.326;2022-07-15T15:54:21;2.80;;;1.27;;
3267;SDS011;1646;52.450;13.326;2022-07-15T15:59:19;10.63;;;1.40;;
3267;SDS011;1646;52.450;13.326;2022-07-15T16:04:17;4.10;;;1.40;;
3267;SDS011;1646;52.450;13.326;2022-07-15T16:09:16;3.27;;;1.00;;
3267;SDS011;1646;52.450;13.326;2022-07-15T16:14:15;1.90;;;1.00;;
3267;SDS011;1646;52.450;13.326;2022-07-15T16:19:14;1.10;;;0.97;;
3267;SDS011;1646;52.450;13.326;2022-07-15T16:24:12;4.50;;;1.27;;
3267;SDS011;1646;52.450;13.326;2022-07-15T16:29:32;5.00;;;1.17;;
3267;SDS011;1646;52.450;13.326;2022-07-15T16:34:30;1.60;;;0.90;;
3267;SDS011;1646;52.450;13.326;2022-07-15T16:39:28;4.00;;;1.20;;
3267;SDS011;1646;52.450;13.326;2022-07-15T16:44:26;2.17;;;1.50;;
3267;SDS011;1646;52.450;13.326;2022-07-15T16:49:26;4.70;;;1.13;;
3267;SDS011;1646;52.450;13.326;2022-07-15T16:54:25;3.17;;;1.27;;
3267;SDS011;1646;52.450;13.326;2022-07-15T16:59:23;3.57;;;1.50;;
3267;SDS011;1646;52.450;13.326;2022-07-15T17:04:22;5.80;;;1.33;;
3267;SDS011;1646;52.450;13.326;2022-07-15T17:09:21;2.03;;;0.83;;
3267;SDS011;1646;52.450;13.326;2022-07-15T17:14:19;1.83;;;0.90;;
3267;SDS011;1646;52.450;13.326;2022-07-15T17:19:17;3.80;;;1.23;;
3267;SDS011;1646;52.450;13.326;2022-07-15T17:24:15;3.87;;;0.90;;
3267;SDS011;1646;52.450;13.326;2022-07-15T17:29:19;3.33;;;1.00;;
3267;SDS011;1646;52.450;13.326;2022-07-15T17:34:17;6.43;;;1.33;;
3267;SDS011;1646;52.450;13.326;2022-07-15T17:39:15;3.07;;;1.70;;
3267;SDS011;1646;52.450;13.326;2022-07-15T17:44:14;4.63;;;1.50;;
3267;SDS011;1646;52.450;13.326;2022-07-15T17:49:13;5.87;;;1.20;;
3267;SDS011;1646;52.450;13.326;2022-07-15T17:54:11;1.40;;;1.00;;
3267;SDS011;1646;52.450;13.326;2022-07-15T17:59:09;3.80;;;1.00;;
3267;SDS011;1646;52.450;13.326;2022-07-15T18:04:08;2.83;;;1.47;;
3267;SDS011;1646;52.450;13.326;2022-07-15T18:09:07;10.03;;;1.63;;
3267;SDS011;1646;52.450;13.326;2022-07-15T18:14:05;3.13;;;1.10;;
3267;SDS011;1646;52.450;13.326;2022-07-15T18:19:03;4.07;;;1.27;;
3267;SDS011;1646;52.450;13.326;2022-07-15T18:24:03;1.33;;;0.90;;
3267;SDS011;1646;52.450;13.326;2022-07-15T18:29:03;1.07;;;0.90;;
3267;SDS011;1646;52.450;13.326;2022-07-15T18:34:02;1.83;;;1.00;;
3267;SDS011;1646;52.450;13.326;2022-07-15T18:39:00;3.03;;;0.77;;
3267;SDS011;1646;52.450;13.326;2022-07-15T18:43:58;5.57;;;1.00;;
3267;SDS011;1646;52.450;13.326;2022-07-15T18:48:58;5.33;;;1.00;;
3267;SDS011;1646;52.450;13.326;2022-07-15T18:53:56;7.50;;;1.00;;
3267;SDS011;1646;52.450;13.326;2022-07-15T18:58:54;2.50;;;1.20;;
3267;SDS011;1646;52.450;13.326;2022-07-15T19:03:53;9.53;;;1.57;;
3267;SDS011;1646;52.450;13.326;2022-07-15T19:08:52;5.23;;;1.00;;
3267;SDS011;1646;52.450;13.326;2022-07-15T19:13:51;1.87;;;0.80;;
3267;SDS011;1646;52.450;13.326;2022-07-15T19:18:50;2.87;;;1.30;;
3267;SDS011;1646;52.450;13.326;2022-07-15T19:23:48;4.90;;;1.30;;
3267;SDS011;1646;52.450;13.326;2022-07-15T19:28:48;10.90;;;1.23;;
3267;SDS011;1646;52.450;13.326;2022-07-15T19:33:46;1.30;;;1.00;;
3267;SDS011;1646;52.450;13.326;2022-07-15T19:38:44;2.63;;;1.00;;
3267;SDS011;1646;52.450;13.326;2022-07-15T19:43:42;4.30;;;1.40;;
3267;SDS011;1646;52.450;13.326;2022-07-15T19:48:41;3.70;;;1.20;;
3267;SDS011;1646;52.450;13.326;2022-07-15T19:53:39;2.27;;;0.90;;
3267;SDS011;1646;52.450;13.326;2022-07-15T19:58:37;1.30;;;0.80;;
3267;SDS011;1646;52.450;13.326;2022-07-15T20:03:35;2.30;;;1.10;;
3267;SDS011;1646;52.450;13.326;2022-07-15T20:08:35;1.07;;;0.80;;
3267;SDS011;1646;52.450;13.326;2022-07-15T20:13:33;1.60;;;0.90;;
3267;SDS011;1646;52.450;13.326;2022-07-15T20:18:31;2.30;;;0.80;;
3267;SDS011;1646;52.450;13.326;2022-07-15T20:23:29;3.43;;;1.00;;
3267;SDS011;1646;52.450;13.326;2022-07-15T20:28:29;0.80;;;0.80;;
3267;SDS011;1646;52.450;13.326;2022-07-15T20:33:27;2.03;;;0.87;;
3267;SDS011;1646;52.450;13.326;2022-07-15T20:38:25;1.47;;;1.37;;
3267;SDS011;1646;52.450;13.326;2022-07-15T20:43:23;2.17;;;1.97;;
3267;SDS011;1646;52.450;13.326;2022-07-15T20:48:23;5.33;;;2.33;;
3267;SDS011;1646;52.450;13.326;2022-07-15T20:53:21;3.00;;;1.00;;
3267;SDS011;1646;52.450;13.326;2022-07-15T20:58:20;1.10;;;0.90;;
3267;SDS011;1646;52.450;13.326;2022-07-15T21:03:18;2.40;;;0.90;;
3267;SDS011;1646;52.450;13.326;2022-07-15T21:08:18;1.53;;;0.80;;
3267;SDS011;1646;52.450;13.326;2022-07-15T21:13:18;1.80;;;0.83;;
3267;SDS011;1646;52.450;13.326;2022-07-15T21:18:16;1.37;;;1.20;;
3267;SDS011;1646;52.450;13.326;2022-07-15T21:23:14;3.30;;;0.97;;
3267;SDS011;1646;52.450;13.326;2022-07-15T21:28:14;6.63;;;1.10;;
3267;SDS011;1646;52.450;13.326;2022-07-15T21:33:12;2.03;;;0.90;;
3267;SDS011;1646;52.450;13.326;2022-07-15T21:38:10;3.60;;;0.97;;
3267;SDS011;1646;52.450;13.326;2022-07-15T21:43:08;3.20;;;1.30;;
3267;SDS011;1646;52.450;13.326;2022-07-15T21:48:07;2.40;;;1.40;;
3267;SDS011;1646;52.450;13.326;2022-07-15T21:53:06;4.20;;;1.17;;
3267;SDS011;1646;52.450;13.326;2022-07-15T21:58:04;2.67;;;1.60;;
3267;SDS011;1646;52.450;13.326;2022-07-15T22:03:02;1.60;;;1.17;;
3267;SDS011;1646;52.450;13.326;2022-07-15T22:08:02;5.50;;;1.17;;
3267;SDS011;1646;52.450;13.326;2022-07-15T22:13:00;1.80;;;0.90;;
3267;SDS011;1646;52.450;13.326;2022-07-15T22:17:59;0.63;;;0.60;;
3267;SDS011;1646;52.450;13.326;2022-07-15T22:22:57;3.60;;;1.00;;
3267;SDS011;1646;52.450;13.326;2022-07-15T22:27:57;1.00;;;0.73;;
3267;SDS011;1646;52.450;13.326;2022-07-15T22:32:55;3.97;;;0.67;;
3267;SDS011;1646;52.450;13.326;2022-07-15T22:37:53;3.50;;;0.93;;
3267;SDS011;1646;52.450;13.326;2022-07-15T22:42:51;1.20;;;0.90;;
3267;SDS011;1646;52.450;13.326;2022-07-15T22:47:51;4.13;;;1.30;;
3267;SDS011;1646;52.450;13.326;2022-07-15T22:52:49;0.60;;;0.60;;
3267;SDS011;1646;52.450;13.326;2022-07-15T22:57:47;0.87;;;0.70;;
3267;SDS011;1646;52.450;13.326;2022-07-15T23:02:45;0.60;;;0.60;;
3267;SDS011;1646;52.450;13.326;2022-07-15T23:07:45;1.33;;;0.70;;
3267;SDS011;1646;52.450;13.326;2022-07-15T23:12:44;2.97;;;0.80;;
3267;SDS011;1646;52.450;13.326;2022-07-15T23:17:42;1.00;;;0.60;;
3267;SDS011;1646;52.450;13.326;2022-07-15T23:22:40;1.90;;;0.60;;
3267;SDS011;1646;52.450;13.326;2022-07-15T23:27:40;2.23;;;0.80;;
3267;SDS011;1646;52.450;13.326;2022-07-15T23:32:38;1.70;;;0.93;;
3267;SDS011;1646;52.450;13.326;2022-07-15T23:37:36;3.80;;;1.00;;
3267;SDS011;1646;52.450;13.326;2022-07-15T23:42:34;1.83;;;1.03;;
3267;SDS011;1646;52.450;13.326;2022-07-15T23:47:33;0.87;;;0.80;;
3267;SDS011;1646;52.450;13.326;2022-07-15T23:52:32;1.40;;;0.90;;
3267;SDS011;1646;52.450;13.326;2022-07-15T23:57:30;4.23;;;0.90;;
